createdAt,value
2023-02-17T00:01:29.129Z,100688.22
2023-02-17T00:03:57.987Z,100658.72
2023-02-17T00:06:28.128Z,100680.38
2023-02-17T00:08:58.327Z,100673.41
2023-02-17T00:11:26.905Z,100673.31
2023-02-17T00:13:56.434Z,100669.75
2023-02-17T00:16:27.219Z,100600.41
2023-02-17T00:18:57.547Z,100667.25
2023-02-17T00:21:28.439Z,100638.63
2023-02-17T00:23:58.429Z,100652.91
2023-02-17T00:26:26.431Z,100638.81
2023-02-17T00:28:54.807Z,100655.81
2023-02-17T00:31:24.393Z,100653.97
2023-02-17T00:33:55.967Z,100611.00
2023-02-17T00:36:25.128Z,100614.91
2023-02-17T00:38:55.241Z,100649.41
2023-02-17T00:41:25.692Z,100630.53
2023-02-17T00:43:53.710Z,100614.56
2023-02-17T00:46:22.129Z,100651.84
2023-02-17T00:48:50.500Z,100656.13
2023-02-17T00:51:18.790Z,100637.66
2023-02-17T00:53:46.785Z,100647.38
2023-02-17T00:56:15.530Z,100642.19
2023-02-17T00:58:45.764Z,100592.28
2023-02-17T01:01:13.889Z,100634.25
2023-02-17T01:03:42.565Z,100633.38
2023-02-17T01:06:24.496Z,100595.13
2023-02-17T01:08:52.890Z,100635.06
2023-02-17T01:11:22.142Z,100633.28
2023-02-17T01:13:51.999Z,100595.69
2023-02-17T01:16:22.932Z,100609.94
2023-02-17T01:18:50.831Z,100635.00
2023-02-17T01:21:20.078Z,100642.75
2023-02-17T01:23:50.579Z,100643.66
2023-02-17T01:26:20.043Z,100654.00
2023-02-17T01:28:48.242Z,100633.59
2023-02-17T01:31:18.336Z,100493.00
2023-02-17T01:33:46.969Z,100640.09
2023-02-17T01:36:16.545Z,100645.34
2023-02-17T01:38:46.523Z,100617.81
2023-02-17T01:41:16.448Z,100642.94
2023-02-17T01:43:44.887Z,100638.81
2023-02-17T01:46:12.835Z,100637.34
2023-02-17T01:48:46.023Z,100637.44
2023-02-17T01:51:20.091Z,100639.56
2023-02-17T01:53:53.203Z,100627.34
2023-02-17T01:56:21.789Z,100633.91
2023-02-17T01:58:55.287Z,100468.50
2023-02-17T02:01:23.412Z,100625.66
2023-02-17T02:03:53.573Z,100623.22
2023-02-17T02:06:25.031Z,100614.66
2023-02-17T02:08:57.931Z,100562.34
2023-02-17T02:11:26.007Z,100606.31
2023-02-17T02:13:54.240Z,100606.47
2023-02-17T02:16:28.446Z,100597.06
2023-02-17T02:19:05.780Z,100602.34
2023-02-17T02:22:09.296Z,100590.19
2023-02-17T02:24:49.923Z,100579.75
2023-02-17T02:27:42.506Z,100583.22
2023-02-17T02:30:29.433Z,100562.75
2023-02-17T02:33:07.375Z,100541.69
2023-02-17T02:35:46.464Z,100573.09
2023-02-17T02:38:19.430Z,100570.66
2023-02-17T02:40:51.318Z,100564.44
2023-02-17T02:43:19.966Z,100571.88
2023-02-17T02:45:48.361Z,100543.88
2023-02-17T02:48:17.567Z,100533.75
2023-02-17T02:51:02.899Z,100538.75
2023-02-17T02:53:46.184Z,100552.13
2023-02-17T02:56:24.262Z,100548.13
2023-02-17T02:59:01.661Z,100549.09
2023-02-17T03:01:39.062Z,100545.78
2023-02-17T03:04:14.462Z,100543.34
2023-02-17T03:06:49.446Z,100538.38
2023-02-17T03:09:22.562Z,100538.53
2023-02-17T03:11:51.653Z,100530.75
2023-02-17T03:14:22.130Z,100522.91
2023-02-17T03:16:51.246Z,100529.13
2023-02-17T03:19:23.808Z,100484.72
2023-02-17T03:21:56.472Z,100509.13
2023-02-17T03:24:24.867Z,100516.09
2023-02-17T03:26:52.836Z,100509.94
2023-02-17T03:29:20.683Z,100516.81
2023-02-17T03:31:48.860Z,100505.84
2023-02-17T03:34:16.715Z,100518.53
2023-02-17T03:36:45.977Z,100512.16
2023-02-17T03:39:14.017Z,100525.34
2023-02-17T03:41:41.848Z,100502.44
2023-02-17T03:44:09.682Z,100511.34
2023-02-17T03:46:40.287Z,100519.28
2023-02-17T03:49:08.171Z,100509.94
2023-02-17T03:51:36.015Z,100527.94
2023-02-17T03:54:05.463Z,100452.28
2023-02-17T03:56:33.671Z,100510.31
2023-02-17T03:59:01.545Z,100509.59
2023-02-17T04:01:29.593Z,100501.88
2023-02-17T04:03:57.660Z,100511.50
2023-02-17T04:06:25.567Z,100515.97
2023-02-17T04:08:53.734Z,100516.09
2023-02-17T04:11:22.963Z,100483.72
2023-02-17T04:13:50.835Z,100523.00
2023-02-17T04:16:18.995Z,100494.47
2023-02-17T04:18:46.847Z,100488.53
2023-02-17T04:21:14.838Z,100486.03
2023-02-17T04:23:42.936Z,100485.22
2023-02-17T04:26:10.781Z,100461.66
2023-02-17T04:28:41.556Z,100460.31
2023-02-17T04:31:10.465Z,100447.94
2023-02-17T04:33:39.025Z,100394.75
2023-02-17T04:36:07.695Z,100456.31
2023-02-17T04:38:36.504Z,100459.78
2023-02-17T04:41:05.104Z,100449.19
2023-02-17T04:43:33.415Z,100433.47
2023-02-17T04:46:03.039Z,100437.09
2023-02-17T04:48:30.991Z,100450.28
2023-02-17T04:50:58.852Z,100415.56
2023-02-17T04:53:26.973Z,100431.56
2023-02-17T04:55:54.847Z,100409.69
2023-02-17T04:58:23.402Z,100400.88
2023-02-17T05:00:52.296Z,100425.03
2023-02-17T05:03:21.967Z,100436.81
2023-02-17T05:05:50.861Z,100430.78
2023-02-17T05:08:18.975Z,100436.94
2023-02-17T05:10:46.821Z,100429.09
2023-02-17T05:13:14.677Z,100423.75
2023-02-17T05:15:44.595Z,100417.06
2023-02-17T05:18:12.705Z,100396.19
2023-02-17T05:20:42.029Z,100392.94
2023-02-17T05:23:10.058Z,100420.63
2023-02-17T05:25:37.900Z,100420.63
2023-02-17T05:28:05.798Z,100414.63
2023-02-17T05:30:33.814Z,100382.28
2023-02-17T05:33:01.947Z,100415.56
2023-02-17T05:35:29.907Z,100395.56
2023-02-17T05:37:59.225Z,100353.97
2023-02-17T05:40:27.074Z,100389.78
2023-02-17T05:42:55.032Z,100392.50
2023-02-17T05:45:22.993Z,100367.03
2023-02-17T05:47:50.821Z,100384.78
2023-02-17T05:50:18.871Z,100359.09
2023-02-17T05:52:46.790Z,100380.50
2023-02-17T05:55:16.112Z,100385.69
2023-02-17T05:57:44.144Z,100376.78
2023-02-17T06:00:13.321Z,100353.78
2023-02-17T06:02:41.210Z,100369.00
2023-02-17T06:05:09.967Z,100368.94
2023-02-17T06:07:37.983Z,100364.84
2023-02-17T06:10:06.865Z,100354.94
2023-02-17T06:12:36.165Z,100351.53
2023-02-17T06:15:04.687Z,100345.50
2023-02-17T06:17:32.570Z,100348.88
2023-02-17T06:20:00.527Z,100356.31
2023-02-17T06:22:28.463Z,100354.53
2023-02-17T06:24:56.327Z,100324.13
2023-02-17T06:27:24.290Z,100358.78
2023-02-17T06:29:53.546Z,100345.78
2023-02-17T06:32:21.365Z,100359.59
2023-02-17T06:34:49.349Z,100331.66
2023-02-17T06:37:17.319Z,100338.75
2023-02-17T06:39:45.155Z,100301.88
2023-02-17T06:42:13.102Z,100335.41
2023-02-17T06:44:40.990Z,100332.81
2023-02-17T06:47:10.249Z,100324.16
2023-02-17T06:49:40.672Z,100324.22
2023-02-17T06:52:08.923Z,100319.16
2023-02-17T06:54:36.775Z,100319.16
2023-02-17T06:57:04.997Z,100318.28
2023-02-17T06:59:33.877Z,100308.78
2023-02-17T07:02:02.555Z,100303.59
2023-02-17T07:04:32.193Z,100303.59
2023-02-17T07:07:00.201Z,100300.16
2023-02-17T07:09:28.123Z,100252.13
2023-02-17T07:11:57.552Z,100295.81
2023-02-17T07:14:28.166Z,100290.53
2023-02-17T07:16:56.252Z,100282.81
2023-02-17T07:19:24.174Z,100285.50
2023-02-17T07:21:53.732Z,100274.28
2023-02-17T07:24:21.599Z,100275.25
2023-02-17T07:26:50.034Z,100256.59
2023-02-17T07:29:18.038Z,100265.94
2023-02-17T07:31:46.060Z,100264.22
2023-02-17T07:34:13.923Z,100233.66
2023-02-17T07:36:41.972Z,100253.22
2023-02-17T07:39:11.200Z,100228.72
2023-02-17T07:41:39.074Z,100239.63
2023-02-17T07:44:07.095Z,100222.97
2023-02-17T07:46:34.909Z,100232.91
2023-02-17T07:49:02.863Z,100232.22
2023-02-17T07:51:30.934Z,100222.84
2023-02-17T07:53:58.898Z,100171.81
2023-02-17T07:56:30.867Z,100205.94
2023-02-17T07:58:58.874Z,100121.09
2023-02-17T08:01:26.954Z,100194.97
2023-02-17T08:03:55.421Z,100161.47
2023-02-17T08:06:25.584Z,100128.13
2023-02-17T08:09:11.792Z,100155.88
2023-02-17T08:12:05.276Z,100168.41
2023-02-17T08:14:33.518Z,100151.13
2023-02-17T08:17:01.686Z,100153.91
2023-02-17T08:19:42.861Z,100100.03
2023-02-17T08:22:14.863Z,100152.47
2023-02-17T08:24:42.826Z,100143.75
2023-02-17T08:27:12.230Z,100123.91
2023-02-17T08:29:40.281Z,100149.72
2023-02-17T08:32:08.613Z,100147.22
2023-02-17T08:34:36.667Z,100139.56
2023-02-17T08:37:06.715Z,100138.78
2023-02-17T08:39:36.193Z,100126.56
2023-02-17T08:42:05.119Z,100139.06
2023-02-17T08:44:36.016Z,100093.25
2023-02-17T08:47:05.593Z,100130.00
2023-02-17T08:49:33.886Z,100126.84
2023-02-17T08:52:01.821Z,100081.09
2023-02-17T08:54:32.646Z,100116.03
2023-02-17T08:57:01.026Z,100052.56
2023-02-17T08:59:29.090Z,100109.34
2023-02-17T09:01:58.856Z,100097.38
2023-02-17T09:04:26.864Z,100071.44
2023-02-17T09:06:57.210Z,100077.38
2023-02-17T09:09:28.972Z,100074.41
2023-02-17T09:11:58.917Z,100043.50
2023-02-17T09:14:27.226Z,100066.03
2023-02-17T09:16:56.607Z,100063.53
2023-02-17T09:19:26.959Z,100049.47
2023-02-17T09:21:55.107Z,100062.09
2023-02-17T09:24:23.185Z,100026.78
2023-02-17T09:26:51.266Z,100052.22
2023-02-17T09:29:19.061Z,100042.59
2023-02-17T09:31:47.029Z,100017.25
2023-02-17T09:34:15.774Z,100032.34
2023-02-17T09:36:45.380Z,100001.44
2023-02-17T09:39:15.085Z,100014.81
2023-02-17T09:41:47.363Z,99919.63
2023-02-17T09:44:21.917Z,100004.69
2023-02-17T09:47:02.060Z,99995.28
2023-02-17T09:49:36.475Z,99981.22
2023-02-17T09:52:11.858Z,99976.22
2023-02-17T09:54:45.877Z,99972.69
2023-02-17T09:57:19.854Z,99966.53
2023-02-17T09:59:51.881Z,99888.03
2023-02-17T10:02:26.374Z,99932.72
2023-02-17T10:04:57.589Z,99932.81
2023-02-17T10:07:34.026Z,99912.03
2023-02-17T10:10:08.237Z,99897.19
2023-02-17T10:12:41.284Z,99903.34
2023-02-17T10:15:16.074Z,99887.63
2023-02-17T10:17:49.554Z,99900.69
2023-02-17T10:20:22.083Z,99884.06
2023-02-17T10:22:55.940Z,99853.16
2023-02-17T10:25:40.496Z,99874.19
2023-02-17T10:28:11.599Z,99871.44
2023-02-17T10:30:45.941Z,99852.31
2023-02-17T10:33:19.149Z,99848.78
2023-02-17T10:35:52.312Z,99833.84
2023-02-17T10:38:37.799Z,99796.66
2023-02-17T10:41:10.859Z,99819.72
2023-02-17T10:43:38.857Z,99805.00
2023-02-17T10:46:09.333Z,99798.84
2023-02-17T10:48:41.442Z,99792.81
2023-02-17T10:51:14.568Z,99753.47
2023-02-17T10:53:47.136Z,99767.00
2023-02-17T10:56:19.594Z,99754.91
2023-02-17T10:58:53.534Z,99739.31
2023-02-17T11:01:23.319Z,99732.56
2023-02-17T11:04:01.614Z,99731.72
2023-02-17T11:06:30.941Z,99727.38
2023-02-17T11:09:04.170Z,99715.19
2023-02-17T11:11:35.672Z,99702.22
2023-02-17T11:14:13.281Z,99675.03
2023-02-17T11:16:44.468Z,99672.47
2023-02-17T11:19:25.012Z,99674.16
2023-02-17T11:21:54.618Z,99668.06
2023-02-17T11:24:24.647Z,99645.50
2023-02-17T11:26:58.382Z,99639.50
2023-02-17T11:29:26.923Z,99574.25
2023-02-17T11:31:56.939Z,99638.47
2023-02-17T11:34:28.453Z,99631.44
2023-02-17T11:37:01.732Z,99585.66
2023-02-17T11:39:31.424Z,99628.75
2023-02-17T11:41:59.336Z,99611.25
2023-02-17T11:44:28.887Z,99610.28
2023-02-17T11:47:05.508Z,99597.25
2023-02-17T11:49:59.757Z,99602.50
2023-02-17T11:52:39.728Z,99586.69
2023-02-17T11:55:19.308Z,99587.44
2023-02-17T11:57:59.822Z,99572.44
2023-02-17T12:00:34.258Z,99564.47
2023-02-17T12:03:46.926Z,99540.84
2023-02-17T12:06:25.195Z,99548.75
2023-02-17T12:09:05.288Z,99527.84
2023-02-17T12:11:46.232Z,99530.34
2023-02-17T12:14:31.373Z,99510.34
2023-02-17T12:17:07.455Z,99504.09
2023-02-17T12:19:47.077Z,99488.50
2023-02-17T12:22:19.384Z,99411.94
2023-02-17T12:25:23.717Z,99460.34
2023-02-17T12:28:04.509Z,99455.19
2023-02-17T12:30:46.307Z,99445.66
2023-02-17T12:33:35.239Z,99444.75
2023-02-17T12:36:06.405Z,99432.50
2023-02-17T12:38:37.891Z,99420.16
2023-02-17T12:41:11.648Z,99409.66
2023-02-17T12:43:44.332Z,99402.66
2023-02-17T12:46:16.385Z,99364.22
2023-02-17T12:48:49.711Z,99383.53
2023-02-17T12:51:23.245Z,99329.84
2023-02-17T12:53:55.719Z,99354.88
2023-02-17T12:56:38.509Z,99347.13
2023-02-17T12:59:17.018Z,99342.72
2023-02-17T13:01:51.770Z,99328.84
2023-02-17T13:04:24.686Z,99310.59
2023-02-17T13:06:59.633Z,99303.63
2023-02-17T13:09:33.244Z,99300.81
2023-02-17T13:12:31.017Z,99288.66
2023-02-17T13:15:02.074Z,99272.69
2023-02-17T13:17:32.119Z,99262.19
2023-02-17T13:20:28.560Z,99243.03
2023-02-17T13:23:08.507Z,99235.75
2023-02-17T13:25:37.896Z,99224.59
2023-02-17T13:28:35.928Z,99221.59
2023-02-17T13:31:17.468Z,99216.50
2023-02-17T13:33:52.108Z,99197.47
2023-02-17T13:36:24.012Z,99182.72
2023-02-17T13:38:59.964Z,99160.78
2023-02-17T13:41:28.900Z,99165.31
2023-02-17T13:43:56.904Z,99105.81
2023-02-17T13:46:27.692Z,99140.97
2023-02-17T13:49:04.687Z,99128.88
2023-02-17T13:51:34.103Z,99099.16
2023-02-17T13:54:09.332Z,99102.00
2023-02-17T13:56:37.280Z,99083.78
2023-02-17T13:59:09.703Z,99066.47
2023-02-17T14:01:42.701Z,99063.06
2023-02-17T14:04:21.860Z,99060.41
2023-02-17T14:06:50.842Z,99027.25
2023-02-17T14:09:23.873Z,98938.16
2023-02-17T14:11:53.204Z,99039.63
2023-02-17T14:14:22.836Z,99003.31
2023-02-17T14:17:00.839Z,98981.47
2023-02-17T14:19:29.250Z,98986.00
2023-02-17T14:22:02.998Z,98931.75
2023-02-17T14:24:33.353Z,98890.72
2023-02-17T14:27:03.393Z,98959.13
2023-02-17T14:29:42.714Z,98941.78
2023-02-17T14:32:34.427Z,98879.66
2023-02-17T14:35:10.513Z,98929.56
2023-02-17T14:37:39.308Z,98919.13
2023-02-17T14:40:16.319Z,98908.72
2023-02-17T14:42:44.492Z,98828.38
2023-02-17T14:45:12.442Z,98874.88
2023-02-17T14:47:41.726Z,98867.00
2023-02-17T14:50:10.488Z,98864.53
2023-02-17T14:52:42.903Z,98847.28
2023-02-17T14:55:17.719Z,98847.34
2023-02-17T14:57:45.852Z,98807.25
2023-02-17T15:00:16.461Z,98823.06
2023-02-17T15:02:45.886Z,98813.50
2023-02-17T15:05:13.727Z,98794.47
2023-02-17T15:07:42.360Z,98786.72
2023-02-17T15:10:18.997Z,98765.63
2023-02-17T15:12:47.100Z,98768.50
2023-02-17T15:15:16.123Z,98733.81
2023-02-17T15:17:46.008Z,98739.09
2023-02-17T15:20:15.588Z,98701.72
2023-02-17T15:22:44.718Z,98700.25
2023-02-17T15:25:17.104Z,98697.63
2023-02-17T15:27:45.276Z,98681.25
2023-02-17T15:30:15.754Z,98658.53
2023-02-17T15:32:46.139Z,98659.66
2023-02-17T15:35:22.810Z,98636.16
2023-02-17T15:37:51.524Z,98626.75
2023-02-17T15:40:24.791Z,98617.41
2023-02-17T15:42:56.605Z,98613.09
2023-02-17T15:45:25.784Z,98581.16
2023-02-17T15:48:05.662Z,98499.06
2023-02-17T15:50:33.683Z,98560.41
2023-02-17T15:53:01.562Z,98562.19
2023-02-17T15:55:29.886Z,98544.94
2023-02-17T15:58:00.212Z,98505.63
2023-02-17T16:00:30.782Z,98525.09
2023-02-17T16:03:00.122Z,98507.00
2023-02-17T16:05:30.011Z,98418.97
2023-02-17T16:07:58.425Z,98458.50
2023-02-17T16:10:28.426Z,98449.84
2023-02-17T16:12:58.433Z,98455.25
2023-02-17T16:15:28.677Z,98460.47
2023-02-17T16:17:57.725Z,98454.44
2023-02-17T16:20:29.928Z,98413.72
2023-02-17T16:22:57.787Z,98420.78
2023-02-17T16:25:27.348Z,98408.63
2023-02-17T16:27:56.142Z,98390.44
2023-02-17T16:30:26.267Z,98391.50
2023-02-17T16:32:54.294Z,98376.66
2023-02-17T16:35:24.560Z,98377.69
2023-02-17T16:37:58.503Z,98349.97
2023-02-17T16:40:29.724Z,98351.84
2023-02-17T16:42:58.364Z,98300.50
2023-02-17T16:45:29.145Z,98331.13
2023-02-17T16:47:59.185Z,98287.59
2023-02-17T16:50:30.869Z,98308.50
2023-02-17T16:53:02.467Z,98298.34
2023-02-17T16:55:32.378Z,98293.03
2023-02-17T16:58:00.927Z,98285.41
2023-02-17T17:00:31.849Z,98241.13
2023-02-17T17:03:00.622Z,98119.38
2023-02-17T17:05:31.090Z,98247.44
2023-02-17T17:08:00.487Z,98245.75
2023-02-17T17:10:30.674Z,98220.59
2023-02-17T17:12:58.703Z,98207.66
2023-02-17T17:15:27.356Z,98189.47
2023-02-17T17:18:00.823Z,98203.47
2023-02-17T17:20:32.306Z,98204.38
2023-02-17T17:23:03.234Z,98194.91
2023-02-17T17:25:31.432Z,98181.09
2023-02-17T17:27:59.503Z,98175.06
2023-02-17T17:30:29.740Z,98124.69
2023-02-17T17:32:57.633Z,98170.75
2023-02-17T17:35:26.076Z,98158.66
2023-02-17T17:37:54.031Z,98150.88
2023-02-17T17:40:25.312Z,98111.03
2023-02-17T17:42:53.514Z,98119.78
2023-02-17T17:45:21.833Z,98124.97
2023-02-17T17:47:49.795Z,98096.38
2023-02-17T17:50:22.043Z,98113.75
2023-02-17T17:52:50.167Z,98050.41
2023-02-17T17:55:18.171Z,98074.78
2023-02-17T17:57:48.208Z,98093.88
2023-02-17T18:00:18.433Z,98067.06
2023-02-17T18:02:46.355Z,98067.94
2023-02-17T18:05:14.435Z,98041.13
2023-02-17T18:07:43.825Z,98045.47
2023-02-17T18:10:14.305Z,98034.25
2023-02-17T18:12:43.777Z,98029.06
2023-02-17T18:15:13.472Z,98020.41
2023-02-17T18:17:43.160Z,98010.91
2023-02-17T18:20:12.798Z,98004.84
2023-02-17T18:22:40.904Z,98002.28
2023-02-17T18:25:09.367Z,97991.03
2023-02-17T18:27:41.661Z,97988.47
2023-02-17T18:30:10.783Z,97974.63
2023-02-17T18:32:40.091Z,97954.72
2023-02-17T18:35:09.111Z,97965.16
2023-02-17T18:37:37.313Z,97959.09
2023-02-17T18:40:05.957Z,97951.31
2023-02-17T18:42:34.625Z,97901.00
2023-02-17T18:45:02.429Z,97941.81
2023-02-17T18:47:31.127Z,97901.06
2023-02-17T18:50:00.510Z,97929.72
2023-02-17T18:52:28.459Z,97882.03
2023-02-17T18:54:56.472Z,97902.88
2023-02-17T18:57:24.471Z,97902.91
2023-02-17T18:59:52.316Z,97897.72
2023-02-17T19:02:21.975Z,97893.38
2023-02-17T19:04:50.016Z,97883.88
2023-02-17T19:07:19.305Z,97886.50
2023-02-17T19:09:47.527Z,97883.03
2023-02-17T19:12:15.562Z,97873.53
2023-02-17T19:14:45.070Z,97849.25
2023-02-17T19:17:13.435Z,97859.69
2023-02-17T19:19:42.956Z,97843.25
2023-02-17T19:22:10.874Z,97852.78
2023-02-17T19:24:41.662Z,97841.56
2023-02-17T19:27:10.328Z,97842.41
2023-02-17T19:29:38.203Z,97812.97
2023-02-17T19:32:06.269Z,97826.88
2023-02-17T19:34:35.334Z,97794.81
2023-02-17T19:37:03.147Z,97815.63
2023-02-17T19:39:31.325Z,97657.13
2023-02-17T19:42:00.885Z,97809.56
2023-02-17T19:44:28.809Z,97806.97
2023-02-17T19:46:56.674Z,97789.66
2023-02-17T19:49:24.712Z,97810.44
2023-02-17T19:51:55.784Z,97807.00
2023-02-17T19:54:24.481Z,97806.13
2023-02-17T19:56:53.175Z,97729.94
2023-02-17T19:59:22.329Z,97762.00
2023-02-17T20:01:50.255Z,97784.50
2023-02-17T20:04:18.330Z,97736.88
2023-02-17T20:06:48.584Z,97790.59
2023-02-17T20:09:22.504Z,97788.88
2023-02-17T20:11:53.029Z,97779.34
2023-02-17T20:14:23.061Z,97781.09
2023-02-17T20:16:53.356Z,97783.69
2023-02-17T20:19:21.600Z,97778.50
2023-02-17T20:21:49.633Z,97771.59
2023-02-17T20:24:17.544Z,97772.47
2023-02-17T20:26:47.555Z,97764.66
2023-02-17T20:29:15.791Z,97764.69
2023-02-17T20:31:45.196Z,97766.41
2023-02-17T20:34:27.213Z,97756.91
2023-02-17T20:36:55.128Z,97754.31
2023-02-17T20:39:23.812Z,97685.06
2023-02-17T20:41:51.768Z,97724.03
2023-02-17T20:44:19.825Z,97722.28
2023-02-17T20:46:49.246Z,97705.84
2023-02-17T20:49:17.361Z,97736.16
2023-02-17T20:51:45.358Z,97720.56
2023-02-17T20:54:13.251Z,97711.91
2023-02-17T20:56:44.220Z,97726.63
2023-02-17T20:59:14.099Z,97742.22
2023-02-17T21:01:43.245Z,97737.91
2023-02-17T21:04:14.130Z,97739.63
2023-02-17T21:06:43.362Z,97741.34
2023-02-17T21:09:15.641Z,97733.56
2023-02-17T21:11:44.059Z,97732.69
2023-02-17T21:14:12.548Z,97719.72
2023-02-17T21:16:40.905Z,97711.94
2023-02-17T21:19:08.920Z,97729.25
2023-02-17T21:21:38.773Z,97727.50
2023-02-17T21:24:06.901Z,97730.09
2023-02-17T21:26:34.902Z,97722.31
2023-02-17T21:29:03.566Z,97732.72
2023-02-17T21:31:32.074Z,97564.88
2023-02-17T21:34:00.670Z,97724.06
2023-02-17T21:36:29.443Z,97730.97
2023-02-17T21:38:59.161Z,97735.31
2023-02-17T21:41:30.420Z,97714.53
2023-02-17T21:44:15.895Z,97728.38
2023-02-17T21:46:44.437Z,97724.91
2023-02-17T21:49:13.410Z,97673.88
2023-02-17T21:51:41.604Z,97708.47
2023-02-17T21:54:11.998Z,97709.34
2023-02-17T21:56:40.035Z,97714.53
2023-02-17T21:59:09.164Z,97707.63
2023-02-17T22:01:37.524Z,97711.06
2023-02-17T22:04:05.762Z,97705.88
2023-02-17T22:06:36.293Z,97707.59
2023-02-17T22:09:06.247Z,97711.06
2023-02-17T22:11:37.529Z,97708.47
2023-02-17T22:14:10.198Z,97706.75
2023-02-17T22:16:39.085Z,97713.66
2023-02-17T22:19:08.830Z,97721.44
2023-02-17T22:21:36.668Z,97721.44
2023-02-17T22:24:04.625Z,97719.72
2023-02-17T22:26:32.910Z,97714.53
2023-02-17T22:29:02.299Z,97717.13
2023-02-17T22:31:32.154Z,97717.97
2023-02-17T22:34:02.317Z,97731.81
2023-02-17T22:36:34.752Z,97733.53
2023-02-17T22:39:03.958Z,97739.59
2023-02-17T22:41:31.831Z,97719.69
2023-02-17T22:44:03.330Z,97742.19
2023-02-17T22:46:31.455Z,97742.19
2023-02-17T22:48:59.530Z,97717.06
2023-02-17T22:51:30.012Z,97734.38
2023-02-17T22:53:58.597Z,97755.16
2023-02-17T22:56:26.493Z,97765.53
2023-02-17T22:58:56.605Z,97757.75
2023-02-17T23:01:26.302Z,97768.13
2023-02-17T23:03:55.175Z,97758.59
2023-02-17T23:06:26.590Z,97757.75
2023-02-17T23:08:55.232Z,97769.84
2023-02-17T23:11:39.469Z,97779.38
2023-02-17T23:14:08.422Z,97778.53
2023-02-17T23:16:38.842Z,97761.22
2023-02-17T23:19:08.476Z,97781.13
2023-02-17T23:21:37.255Z,97787.19
2023-02-17T23:24:05.704Z,97768.13
2023-02-17T23:26:33.640Z,97788.03
2023-02-17T23:29:01.585Z,97795.84
2023-02-17T23:31:29.638Z,97793.25
2023-02-17T23:33:59.035Z,97801.00
2023-02-17T23:36:26.931Z,97807.94
2023-02-17T23:38:55.691Z,97806.19
2023-02-17T23:41:23.707Z,97801.00
2023-02-17T23:43:51.694Z,97807.06
2023-02-17T23:46:20.660Z,97772.41
2023-02-17T23:48:48.843Z,97825.22
2023-02-17T23:51:19.871Z,97814.84
2023-02-17T23:53:48.321Z,97819.16
2023-02-17T23:56:19.525Z,97806.13
2023-02-17T23:58:47.612Z,97829.53
